普天間 の空港の天気 - METARとTAF

普天間飛行場 ( ROTM / ) - 沖縄県宜野湾市
飛行場実況気象(Metar)
観測時間06/02 06:56 JST (06/01 21:56 UTC)
風向・風速南西 7m/s
視程10km以上
天気現象
少しの雲 雲底高度 460m
全天の4割程度の雲 雲底高度 1070m
全天の8割程度の雲 雲底高度 1830m
気温26.7℃
湿度90%
気圧1010hPa
METARROTM 012156Z 22014KT 9999 FEW015 SCT035 BKN060 27/25 A2987 RMK SLP100 T02670250
過去の天気等 Google飛行場航空写真 Wunderground天気予報

過去48時間のMETAR

飛行場予報(TAF)
発表時間: -
2日8時 JST ~ 2日11時 JST に一時的に
視程9000m
天気現象霧雨 もや
少しの雲 雲底高度 270m
全天の8割程度の雲 雲底高度 460m
全天を覆う雲 雲底高度 2130m
2日13時 JST から
風向・風速南西 5m/s
視程10km以上
全天の4割程度の雲 雲底高度 550m
全天の8割程度の雲 雲底高度 1520m
全天の8割程度の雲 雲底高度 3050m
2日18時 JST ~ 2日19時 JST に一時的に
視程9000m
天気現象弱いしゅう雨 もや
全天の8割程度の雲 雲底高度 610m
全天を覆う雲 雲底高度 1520m
3日0時 JST から
風向・風速南西 6m/s
視程10km以上
少しの雲 雲底高度 610m
全天の4割程度の雲 雲底高度 2440m
TAF ROTM 0121/0221 21012KT 9999 FEW010 SCT040 BKN070 QNH2986INS
TEMPO 0123/0202 9000 DZ BR FEW009 BKN015 OVC070
FM020400 22010KT 9999 SCT018 BKN050 BKN100 QNH2984INS
TEMPO 0209/0210 9000 -SHRA BR BKN020 OVC050
FM021500 23012KT 9999 FEW020 SCT080 QNH2982INS T28/0205Z T25/0216Z
日本の空港のMETAR・TAFへのリンク

RJTT 東京国際空港
RJAA 新東京国際空港
RJBB 関西国際空港
RJOO 大阪空港
RJGG 中部国際空港
RJCC 新千歳空港
RJFF 福岡空港
ROAH 那覇空港


RJEC 旭川空港
RJCH 函館空港
RJCK 釧路空港
RJCM 女満別空港
RJCB 帯広空港
RJSA 青森空港
RJSS 仙台空港
RJSK 秋田空港
RJSF 福島空港
RJAH 茨城空港
RJSN 新潟空港
RJNT 富山空港
RJNK 小松飛行場
RJNS 静岡空港
RJOH 美保飛行場
RJOC 出雲空港
RJOB 岡山空港
RJOA 広島空港
RJOI 岩国飛行場
RJOT 高松空港
RJOM 松山空港
RJOK 高知空港
RJFR 北九州空港
RJFT 熊本空港
RJFU 長崎空港
RJFS 佐賀空港
RJFO 大分空港
RJFM 宮崎空港
RJFK 鹿児島空港
ROIG 石垣島空港
RJTY 横田飛行場
ROTM 普天間飛行場
RODN 嘉手納飛行場